TimeCDT,TemperatureF,Dew PointF,Humidity,Sea Level PressureIn,VisibilityMPH,Wind Direction,Wind SpeedMPH,Gust SpeedMPH,PrecipitationIn,Events,Conditions,WindDirDegrees,DateUTC
12:15 AM,44.6,33.1,64,29.99,10.0,NE,6.9,-,N/A,,Clear,40,2013-04-11 05:15:00
12:35 AM,44.6,33.1,64,30.01,10.0,NNE,4.6,-,N/A,,Clear,30,2013-04-11 05:35:00
12:55 AM,44.4,33.1,64,30.02,10.0,East,3.5,-,N/A,,Scattered Clouds,80,2013-04-11 05:55:00
1:15 AM,44.2,33.8,67,30.01,10.0,East,5.8,-,N/A,,Mostly Cloudy,80,2013-04-11 06:15:00
1:35 AM,44.1,33.3,66,30.00,10.0,ENE,5.8,-,N/A,,Scattered Clouds,70,2013-04-11 06:35:00
1:55 AM,43.9,32.9,65,30.01,10.0,ENE,3.5,-,N/A,,Clear,70,2013-04-11 06:55:00
2:15 AM,43.7,33.3,67,30.00,10.0,Calm,Calm,-,N/A,,Clear,0,2013-04-11 07:15:00
2:35 AM,43.2,33.4,69,30.00,10.0,Calm,Calm,-,N/A,,Clear,0,2013-04-11 07:35:00
2:55 AM,43.2,33.8,70,29.99,10.0,Calm,Calm,-,N/A,,Clear,0,2013-04-11 07:55:00
3:15 AM,42.8,34.5,73,29.96,10.0,Calm,Calm,-,N/A,,Clear,0,2013-04-11 08:15:00
3:35 AM,42.6,33.4,70,29.96,10.0,North,3.5,-,N/A,,Clear,350,2013-04-11 08:35:00
3:55 AM,41.9,33.8,73,29.96,10.0,NNW,3.5,-,N/A,,Clear,330,2013-04-11 08:55:00
4:15 AM,41.5,33.4,73,29.95,10.0,NW,3.5,-,N/A,,Clear,320,2013-04-11 09:15:00
4:35 AM,40.5,33.1,75,29.95,10.0,NW,4.6,-,N/A,,Clear,310,2013-04-11 09:35:00
4:55 AM,40.1,33.1,76,29.95,10.0,NW,4.6,-,N/A,,Clear,320,2013-04-11 09:55:00
5:15 AM,39.2,33.1,79,29.94,10.0,NW,5.8,-,N/A,,Clear,320,2013-04-11 10:15:00
5:35 AM,39.6,32.5,76,29.94,10.0,NW,6.9,-,N/A,,Clear,310,2013-04-11 10:35:00
5:55 AM,38.7,32.9,80,29.95,10.0,NW,4.6,-,N/A,,Clear,310,2013-04-11 10:55:00
6:15 AM,38.3,32.9,81,29.95,10.0,NW,4.6,-,N/A,,Clear,310,2013-04-11 11:15:00
6:35 AM,38.3,32.9,81,29.94,10.0,NW,6.9,-,N/A,,Clear,310,2013-04-11 11:35:00
6:55 AM,38.1,32.9,81,29.95,10.0,NW,6.9,-,N/A,,Clear,320,2013-04-11 11:55:00
7:15 AM,38.1,33.1,82,29.95,10.0,NW,4.6,-,N/A,,Clear,310,2013-04-11 12:15:00
7:35 AM,38.5,33.1,81,29.95,10.0,NW,6.9,-,N/A,,Clear,320,2013-04-11 12:35:00
7:55 AM,39.7,33.4,78,29.96,10.0,NW,4.6,-,N/A,,Clear,310,2013-04-11 12:55:00
8:15 AM,41.2,33.8,75,29.96,10.0,NW,3.5,-,N/A,,Clear,310,2013-04-11 13:15:00
8:35 AM,43.3,32.9,67,29.96,10.0,NNW,4.6,-,N/A,,Clear,340,2013-04-11 13:35:00
8:55 AM,45.9,29.7,53,29.96,10.0,North,5.8,-,N/A,,Clear,10,2013-04-11 13:55:00
9:15 AM,46.8,28.0,48,29.95,10.0,NE,10.4,-,N/A,,Clear,50,2013-04-11 14:15:00
9:35 AM,47.5,26.4,44,29.95,10.0,NE,9.2,-,N/A,,Clear,40,2013-04-11 14:35:00
9:55 AM,48.6,26.4,42,29.96,10.0,NE,6.9,-,N/A,,Clear,50,2013-04-11 14:55:00
10:15 AM,49.5,25.9,40,29.96,10.0,NE,5.8,-,N/A,,Clear,40,2013-04-11 15:15:00
10:35 AM,50.2,25.2,38,29.96,10.0,ENE,5.8,-,N/A,,Clear,70,2013-04-11 15:35:00
10:55 AM,50.7,24.1,35,29.96,10.0,NE,6.9,-,N/A,,Clear,50,2013-04-11 15:55:00
11:15 AM,51.8,25.5,36,29.95,10.0,ENE,3.5,-,N/A,,Clear,60,2013-04-11 16:15:00
11:35 AM,53.8,25.5,34,29.95,10.0,NE,3.5,-,N/A,,Clear,50,2013-04-11 16:35:00
12:15 PM,55.6,24.1,30,29.93,10.0,NNE,3.5,-,N/A,,Clear,30,2013-04-11 17:15:00
12:35 PM,57.2,24.3,28,29.92,10.0,Calm,Calm,-,N/A,,Clear,0,2013-04-11 17:35:00
12:55 PM,57.9,25.3,29,29.91,10.0,ENE,3.5,-,N/A,,Clear,60,2013-04-11 17:55:00
1:15 PM,59.4,26.6,29,29.89,10.0,ESE,5.8,-,N/A,,Clear,120,2013-04-11 18:15:00
1:35 PM,59.9,26.2,28,29.88,10.0,Calm,Calm,-,N/A,,Clear,0,2013-04-11 18:35:00
1:55 PM,62.1,27.1,27,29.88,10.0,SSW,3.5,-,N/A,,Clear,200,2013-04-11 18:55:00
2:15 PM,62.6,27.9,27,29.87,10.0,SW,9.2,-,N/A,,Clear,220,2013-04-11 19:15:00
2:35 PM,62.4,27.1,26,29.86,10.0,WSW,4.6,-,N/A,,Clear,250,2013-04-11 19:35:00
2:55 PM,63.7,27.0,25,29.85,10.0,Calm,Calm,-,N/A,,Clear,0,2013-04-11 19:55:00
3:15 PM,64.2,28.2,26,29.85,10.0,WSW,3.5,-,N/A,,Clear,250,2013-04-11 20:15:00
3:35 PM,65.1,28.8,26,29.84,10.0,South,5.8,-,N/A,,Clear,180,2013-04-11 20:35:00
4:15 PM,66.7,28.9,24,29.83,10.0,WNW,4.6,-,N/A,,Clear,300,2013-04-11 21:15:00
4:35 PM,67.3,29.8,25,29.80,10.0,NW,8.1,-,N/A,,Clear,320,2013-04-11 21:35:00
4:55 PM,68.0,29.1,23,29.80,10.0,West,4.6,-,N/A,,Clear,270,2013-04-11 21:55:00
5:15 PM,67.5,28.9,24,29.80,10.0,Calm,Calm,-,N/A,,Clear,0,2013-04-11 22:15:00
5:35 PM,68.2,30.0,24,29.79,10.0,NW,3.5,-,N/A,,Clear,310,2013-04-11 22:35:00
5:55 PM,68.2,30.0,24,29.78,10.0,Calm,Calm,-,N/A,,Clear,0,2013-04-11 22:55:00
6:15 PM,67.5,28.8,24,29.79,10.0,Calm,Calm,-,N/A,,Clear,0,2013-04-11 23:15:00
6:35 PM,67.6,30.0,25,29.79,10.0,ESE,3.5,-,N/A,,Clear,110,2013-04-11 23:35:00
6:55 PM,67.5,30.0,25,29.80,10.0,Calm,Calm,-,N/A,,Clear,0,2013-04-11 23:55:00
7:15 PM,66.6,30.4,26,29.80,10.0,Calm,Calm,-,N/A,,Clear,0,2013-04-12 00:15:00
7:35 PM,65.1,31.8,29,29.80,10.0,ESE,3.5,-,N/A,,Clear,120,2013-04-12 00:35:00
7:55 PM,62.1,32.2,33,29.80,10.0,ESE,4.6,-,N/A,,Clear,120,2013-04-12 00:55:00
8:15 PM,60.3,32.0,34,29.81,10.0,ESE,4.6,-,N/A,,Clear,120,2013-04-12 01:15:00
8:35 PM,58.6,32.4,37,29.82,10.0,ESE,4.6,-,N/A,,Clear,110,2013-04-12 01:35:00
8:55 PM,57.2,32.0,38,29.83,10.0,ESE,8.1,-,N/A,,Clear,120,2013-04-12 01:55:00
9:15 PM,56.5,32.4,40,29.84,10.0,ESE,3.5,-,N/A,,Clear,110,2013-04-12 02:15:00
9:35 PM,56.5,32.2,40,29.85,10.0,SE,3.5,-,N/A,,Clear,130,2013-04-12 02:35:00
9:55 PM,55.6,32.0,41,29.85,10.0,SSE,3.5,-,N/A,,Clear,150,2013-04-12 02:55:00
10:15 PM,54.7,32.4,43,29.86,10.0,Calm,Calm,-,N/A,,Clear,0,2013-04-12 03:15:00
10:35 PM,54.5,32.9,44,29.87,10.0,SSE,3.5,-,N/A,,Clear,150,2013-04-12 03:35:00
10:55 PM,53.1,33.1,47,29.88,10.0,South,5.8,-,N/A,,Clear,170,2013-04-12 03:55:00
11:15 PM,50.9,33.8,52,29.88,10.0,South,4.6,-,N/A,,Clear,180,2013-04-12 04:15:00
11:35 PM,51.8,34.0,51,29.88,10.0,South,4.6,-,N/A,,Clear,170,2013-04-12 04:35:00
11:55 PM,52.2,34.7,51,29.88,10.0,South,8.1,-,N/A,,Clear,190,2013-04-12 04:55:00